sensor_id;sensor_type;location;lat;lon;timestamp;P1;durP1;ratioP1;P2;durP2;ratioP2
21890;SDS011;11110;52.386;16.940;2022-11-27T00:01:32;47.40;;;19.17;;
21890;SDS011;11110;52.386;16.940;2022-11-27T00:04:02;59.00;;;20.20;;
21890;SDS011;11110;52.386;16.940;2022-11-27T00:06:31;49.67;;;18.80;;
21890;SDS011;11110;52.386;16.940;2022-11-27T00:09:00;53.33;;;20.73;;
21890;SDS011;11110;52.386;16.940;2022-11-27T00:11:32;52.33;;;19.10;;
21890;SDS011;11110;52.386;16.940;2022-11-27T00:14:01;52.70;;;20.10;;
21890;SDS011;11110;52.386;16.940;2022-11-27T00:16:29;51.50;;;21.23;;
21890;SDS011;11110;52.386;16.940;2022-11-27T00:18:58;60.17;;;20.23;;
21890;SDS011;11110;52.386;16.940;2022-11-27T00:21:27;50.10;;;19.00;;
21890;SDS011;11110;52.386;16.940;2022-11-27T00:23:58;49.40;;;19.27;;
21890;SDS011;11110;52.386;16.940;2022-11-27T00:26:30;53.53;;;20.17;;
21890;SDS011;11110;52.386;16.940;2022-11-27T00:29:03;57.67;;;19.77;;
21890;SDS011;11110;52.386;16.940;2022-11-27T00:31:33;49.53;;;19.63;;
21890;SDS011;11110;52.386;16.940;2022-11-27T00:34:04;63.07;;;21.77;;
21890;SDS011;11110;52.386;16.940;2022-11-27T00:36:34;62.77;;;22.07;;
21890;SDS011;11110;52.386;16.940;2022-11-27T00:39:02;50.97;;;19.53;;
21890;SDS011;11110;52.386;16.940;2022-11-27T00:41:32;64.43;;;21.10;;
21890;SDS011;11110;52.386;16.940;2022-11-27T00:44:01;58.03;;;20.77;;
21890;SDS011;11110;52.386;16.940;2022-11-27T00:46:30;59.70;;;22.30;;
21890;SDS011;11110;52.386;16.940;2022-11-27T00:49:00;58.40;;;20.73;;
21890;SDS011;11110;52.386;16.940;2022-11-27T00:51:31;62.03;;;21.43;;
21890;SDS011;11110;52.386;16.940;2022-11-27T00:53:59;54.07;;;20.23;;
21890;SDS011;11110;52.386;16.940;2022-11-27T00:56:28;64.50;;;21.13;;
21890;SDS011;11110;52.386;16.940;2022-11-27T00:58:59;54.90;;;19.77;;
21890;SDS011;11110;52.386;16.940;2022-11-27T01:01:28;47.63;;;19.03;;
21890;SDS011;11110;52.386;16.940;2022-11-27T01:03:58;59.87;;;21.80;;
21890;SDS011;11110;52.386;16.940;2022-11-27T01:06:28;58.30;;;21.10;;
21890;SDS011;11110;52.386;16.940;2022-11-27T01:08:57;59.33;;;21.53;;
21890;SDS011;11110;52.386;16.940;2022-11-27T01:11:27;62.53;;;22.67;;
21890;SDS011;11110;52.386;16.940;2022-11-27T01:13:57;63.13;;;22.20;;
21890;SDS011;11110;52.386;16.940;2022-11-27T01:16:29;64.80;;;23.23;;
21890;SDS011;11110;52.386;16.940;2022-11-27T01:18:59;62.07;;;21.33;;
21890;SDS011;11110;52.386;16.940;2022-11-27T01:21:29;59.03;;;22.30;;
21890;SDS011;11110;52.386;16.940;2022-11-27T01:23:58;57.27;;;20.60;;
21890;SDS011;11110;52.386;16.940;2022-11-27T01:26:27;65.90;;;23.03;;
21890;SDS011;11110;52.386;16.940;2022-11-27T01:28:56;61.13;;;21.20;;
21890;SDS011;11110;52.386;16.940;2022-11-27T01:31:27;64.57;;;23.47;;
21890;SDS011;11110;52.386;16.940;2022-11-27T01:33:57;66.97;;;23.77;;
21890;SDS011;11110;52.386;16.940;2022-11-27T01:36:27;57.53;;;22.67;;
21890;SDS011;11110;52.386;16.940;2022-11-27T01:38:55;73.73;;;23.47;;
21890;SDS011;11110;52.386;16.940;2022-11-27T01:41:25;68.27;;;24.17;;
21890;SDS011;11110;52.386;16.940;2022-11-27T01:43:55;61.40;;;23.30;;
21890;SDS011;11110;52.386;16.940;2022-11-27T01:46:31;72.17;;;23.87;;
21890;SDS011;11110;52.386;16.940;2022-11-27T01:49:19;67.67;;;22.97;;
21890;SDS011;11110;52.386;16.940;2022-11-27T01:51:51;68.43;;;23.53;;
21890;SDS011;11110;52.386;16.940;2022-11-27T01:54:23;66.97;;;24.80;;
21890;SDS011;11110;52.386;16.940;2022-11-27T01:56:54;74.23;;;22.97;;
21890;SDS011;11110;52.386;16.940;2022-11-27T01:59:25;71.57;;;23.63;;
21890;SDS011;11110;52.386;16.940;2022-11-27T02:01:55;65.50;;;22.27;;
21890;SDS011;11110;52.386;16.940;2022-11-27T02:04:23;77.53;;;25.30;;
21890;SDS011;11110;52.386;16.940;2022-11-27T02:06:52;73.07;;;23.83;;
21890;SDS011;11110;52.386;16.940;2022-11-27T02:09:21;65.63;;;23.83;;
21890;SDS011;11110;52.386;16.940;2022-11-27T02:11:52;74.00;;;24.90;;
21890;SDS011;11110;52.386;16.940;2022-11-27T02:14:26;77.77;;;24.63;;
21890;SDS011;11110;52.386;16.940;2022-11-27T02:17:01;76.03;;;24.67;;
21890;SDS011;11110;52.386;16.940;2022-11-27T02:19:40;69.07;;;24.33;;
21890;SDS011;11110;52.386;16.940;2022-11-27T02:22:20;68.13;;;24.93;;
21890;SDS011;11110;52.386;16.940;2022-11-27T02:25:01;70.90;;;24.50;;
21890;SDS011;11110;52.386;16.940;2022-11-27T02:27:48;76.57;;;25.40;;
21890;SDS011;11110;52.386;16.940;2022-11-27T02:30:38;87.10;;;27.57;;
21890;SDS011;11110;52.386;16.940;2022-11-27T02:33:12;78.93;;;24.10;;
21890;SDS011;11110;52.386;16.940;2022-11-27T02:35:47;86.10;;;26.90;;
21890;SDS011;11110;52.386;16.940;2022-11-27T02:38:20;73.93;;;26.27;;
21890;SDS011;11110;52.386;16.940;2022-11-27T02:40:54;82.13;;;26.90;;
21890;SDS011;11110;52.386;16.940;2022-11-27T02:43:27;89.70;;;27.00;;
21890;SDS011;11110;52.386;16.940;2022-11-27T02:46:01;72.13;;;24.60;;
21890;SDS011;11110;52.386;16.940;2022-11-27T02:48:32;84.57;;;28.40;;
21890;SDS011;11110;52.386;16.940;2022-11-27T02:51:03;87.53;;;26.63;;
21890;SDS011;11110;52.386;16.940;2022-11-27T02:53:34;85.13;;;26.33;;
21890;SDS011;11110;52.386;16.940;2022-11-27T02:56:05;77.93;;;26.30;;
21890;SDS011;11110;52.386;16.940;2022-11-27T02:58:36;70.40;;;26.23;;
21890;SDS011;11110;52.386;16.940;2022-11-27T03:01:07;70.00;;;24.43;;
21890;SDS011;11110;52.386;16.940;2022-11-27T03:03:39;72.37;;;25.83;;
21890;SDS011;11110;52.386;16.940;2022-11-27T03:06:14;75.93;;;23.80;;
21890;SDS011;11110;52.386;16.940;2022-11-27T03:08:48;67.50;;;25.50;;
21890;SDS011;11110;52.386;16.940;2022-11-27T03:11:20;67.13;;;25.57;;
21890;SDS011;11110;52.386;16.940;2022-11-27T03:13:51;72.13;;;24.47;;
21890;SDS011;11110;52.386;16.940;2022-11-27T03:16:25;67.43;;;23.33;;
21890;SDS011;11110;52.386;16.940;2022-11-27T03:19:03;75.07;;;24.17;;
21890;SDS011;11110;52.386;16.940;2022-11-27T03:21:38;64.47;;;22.67;;
21890;SDS011;11110;52.386;16.940;2022-11-27T03:24:09;70.13;;;23.37;;
21890;SDS011;11110;52.386;16.940;2022-11-27T03:26:38;66.40;;;24.17;;
21890;SDS011;11110;52.386;16.940;2022-11-27T03:29:08;65.50;;;24.00;;
21890;SDS011;11110;52.386;16.940;2022-11-27T03:31:40;74.57;;;24.30;;
21890;SDS011;11110;52.386;16.940;2022-11-27T03:34:08;61.57;;;22.23;;
21890;SDS011;11110;52.386;16.940;2022-11-27T03:36:37;70.93;;;25.00;;
21890;SDS011;11110;52.386;16.940;2022-11-27T03:39:05;71.50;;;23.83;;
21890;SDS011;11110;52.386;16.940;2022-11-27T03:41:36;73.43;;;24.93;;
21890;SDS011;11110;52.386;16.940;2022-11-27T03:44:12;69.07;;;24.73;;
21890;SDS011;11110;52.386;16.940;2022-11-27T03:46:52;68.20;;;25.23;;
21890;SDS011;11110;52.386;16.940;2022-11-27T03:49:32;66.00;;;23.73;;
21890;SDS011;11110;52.386;16.940;2022-11-27T03:52:10;72.83;;;23.83;;
21890;SDS011;11110;52.386;16.940;2022-11-27T03:54:49;66.33;;;22.73;;
21890;SDS011;11110;52.386;16.940;2022-11-27T03:57:25;69.20;;;24.20;;
21890;SDS011;11110;52.386;16.940;2022-11-27T03:59:59;67.57;;;23.93;;
21890;SDS011;11110;52.386;16.940;2022-11-27T04:02:39;71.97;;;24.93;;
21890;SDS011;11110;52.386;16.940;2022-11-27T04:05:10;74.07;;;24.30;;
21890;SDS011;11110;52.386;16.940;2022-11-27T04:07:39;77.30;;;25.67;;
21890;SDS011;11110;52.386;16.940;2022-11-27T04:10:08;78.67;;;25.47;;
21890;SDS011;11110;52.386;16.940;2022-11-27T04:12:37;67.20;;;23.80;;
21890;SDS011;11110;52.386;16.940;2022-11-27T04:15:06;80.00;;;25.57;;
21890;SDS011;11110;52.386;16.940;2022-11-27T04:17:34;70.77;;;23.73;;
21890;SDS011;11110;52.386;16.940;2022-11-27T04:20:04;67.33;;;24.47;;
21890;SDS011;11110;52.386;16.940;2022-11-27T04:22:33;79.00;;;25.87;;
21890;SDS011;11110;52.386;16.940;2022-11-27T04:25:02;68.07;;;24.20;;
21890;SDS011;11110;52.386;16.940;2022-11-27T04:27:30;63.93;;;23.63;;
21890;SDS011;11110;52.386;16.940;2022-11-27T04:29:59;68.57;;;24.00;;
21890;SDS011;11110;52.386;16.940;2022-11-27T04:32:27;67.30;;;23.50;;
21890;SDS011;11110;52.386;16.940;2022-11-27T04:34:55;68.40;;;24.37;;
21890;SDS011;11110;52.386;16.940;2022-11-27T04:37:24;70.83;;;25.37;;
21890;SDS011;11110;52.386;16.940;2022-11-27T04:39:53;70.83;;;24.97;;
21890;SDS011;11110;52.386;16.940;2022-11-27T04:42:21;64.87;;;23.50;;
21890;SDS011;11110;52.386;16.940;2022-11-27T04:44:49;64.40;;;24.23;;
21890;SDS011;11110;52.386;16.940;2022-11-27T04:47:17;60.60;;;21.83;;
21890;SDS011;11110;52.386;16.940;2022-11-27T04:49:46;61.30;;;22.33;;
21890;SDS011;11110;52.386;16.940;2022-11-27T04:52:14;56.93;;;21.37;;
21890;SDS011;11110;52.386;16.940;2022-11-27T04:54:43;58.93;;;22.40;;
21890;SDS011;11110;52.386;16.940;2022-11-27T04:57:11;61.70;;;22.10;;
21890;SDS011;11110;52.386;16.940;2022-11-27T04:59:40;57.83;;;21.77;;
21890;SDS011;11110;52.386;16.940;2022-11-27T05:02:08;65.77;;;22.80;;
21890;SDS011;11110;52.386;16.940;2022-11-27T05:04:36;61.23;;;22.90;;
21890;SDS011;11110;52.386;16.940;2022-11-27T05:07:05;56.10;;;21.63;;
21890;SDS011;11110;52.386;16.940;2022-11-27T05:09:33;62.63;;;22.53;;
21890;SDS011;11110;52.386;16.940;2022-11-27T05:12:03;53.57;;;20.87;;
21890;SDS011;11110;52.386;16.940;2022-11-27T05:14:32;58.67;;;21.73;;
21890;SDS011;11110;52.386;16.940;2022-11-27T05:17:00;69.07;;;22.87;;
21890;SDS011;11110;52.386;16.940;2022-11-27T05:19:29;55.43;;;22.07;;
21890;SDS011;11110;52.386;16.940;2022-11-27T05:21:58;55.23;;;20.70;;
21890;SDS011;11110;52.386;16.940;2022-11-27T05:24:27;57.27;;;22.07;;
21890;SDS011;11110;52.386;16.940;2022-11-27T05:26:55;53.63;;;21.70;;
21890;SDS011;11110;52.386;16.940;2022-11-27T05:29:25;53.70;;;20.80;;
21890;SDS011;11110;52.386;16.940;2022-11-27T05:31:54;56.93;;;20.57;;
21890;SDS011;11110;52.386;16.940;2022-11-27T05:34:22;53.90;;;20.20;;
21890;SDS011;11110;52.386;16.940;2022-11-27T05:36:50;54.67;;;19.87;;
21890;SDS011;11110;52.386;16.940;2022-11-27T05:39:19;58.37;;;21.77;;
21890;SDS011;11110;52.386;16.940;2022-11-27T05:41:47;61.30;;;23.03;;
21890;SDS011;11110;52.386;16.940;2022-11-27T05:44:15;58.63;;;21.27;;
21890;SDS011;11110;52.386;16.940;2022-11-27T05:46:45;53.90;;;20.90;;
21890;SDS011;11110;52.386;16.940;2022-11-27T05:49:14;56.63;;;20.07;;
21890;SDS011;11110;52.386;16.940;2022-11-27T05:51:42;55.57;;;21.63;;
21890;SDS011;11110;52.386;16.940;2022-11-27T05:54:17;65.87;;;22.47;;
21890;SDS011;11110;52.386;16.940;2022-11-27T05:56:45;55.93;;;22.27;;
21890;SDS011;11110;52.386;16.940;2022-11-27T05:59:14;54.87;;;21.33;;
21890;SDS011;11110;52.386;16.940;2022-11-27T06:01:42;56.50;;;21.23;;
21890;SDS011;11110;52.386;16.940;2022-11-27T06:04:12;63.30;;;21.40;;
21890;SDS011;11110;52.386;16.940;2022-11-27T06:06:40;52.87;;;20.43;;
21890;SDS011;11110;52.386;16.940;2022-11-27T06:09:08;56.63;;;21.67;;
21890;SDS011;11110;52.386;16.940;2022-11-27T06:11:39;55.63;;;20.53;;
21890;SDS011;11110;52.386;16.940;2022-11-27T06:14:08;59.00;;;22.13;;
21890;SDS011;11110;52.386;16.940;2022-11-27T06:16:37;46.43;;;20.03;;
21890;SDS011;11110;52.386;16.940;2022-11-27T06:19:06;66.77;;;22.77;;
21890;SDS011;11110;52.386;16.940;2022-11-27T06:21:35;53.73;;;22.07;;
21890;SDS011;11110;52.386;16.940;2022-11-27T06:24:04;55.67;;;21.63;;
21890;SDS011;11110;52.386;16.940;2022-11-27T06:26:33;61.53;;;21.40;;
21890;SDS011;11110;52.386;16.940;2022-11-27T06:29:01;55.87;;;21.47;;
21890;SDS011;11110;52.386;16.940;2022-11-27T06:31:30;51.03;;;20.40;;
21890;SDS011;11110;52.386;16.940;2022-11-27T06:34:00;58.73;;;22.73;;
21890;SDS011;11110;52.386;16.940;2022-11-27T06:36:30;60.63;;;23.83;;
21890;SDS011;11110;52.386;16.940;2022-11-27T06:39:01;57.73;;;24.20;;
21890;SDS011;11110;52.386;16.940;2022-11-27T06:41:31;75.63;;;29.03;;
21890;SDS011;11110;52.386;16.940;2022-11-27T06:44:00;63.40;;;26.40;;
21890;SDS011;11110;52.386;16.940;2022-11-27T06:46:28;70.07;;;27.10;;
21890;SDS011;11110;52.386;16.940;2022-11-27T06:48:57;75.50;;;28.53;;
21890;SDS011;11110;52.386;16.940;2022-11-27T06:51:27;62.17;;;24.93;;
21890;SDS011;11110;52.386;16.940;2022-11-27T06:53:59;59.33;;;23.17;;
21890;SDS011;11110;52.386;16.940;2022-11-27T06:56:29;65.27;;;23.23;;
21890;SDS011;11110;52.386;16.940;2022-11-27T06:58:59;55.57;;;21.93;;
21890;SDS011;11110;52.386;16.940;2022-11-27T07:01:28;58.70;;;22.73;;
21890;SDS011;11110;52.386;16.940;2022-11-27T07:03:58;61.87;;;24.63;;
21890;SDS011;11110;52.386;16.940;2022-11-27T07:06:26;86.13;;;29.57;;
21890;SDS011;11110;52.386;16.940;2022-11-27T07:08:55;59.33;;;23.33;;
21890;SDS011;11110;52.386;16.940;2022-11-27T07:11:25;70.10;;;25.83;;
21890;SDS011;11110;52.386;16.940;2022-11-27T07:13:55;60.57;;;22.70;;
21890;SDS011;11110;52.386;16.940;2022-11-27T07:16:25;61.67;;;23.97;;
21890;SDS011;11110;52.386;16.940;2022-11-27T07:18:56;61.67;;;25.23;;
21890;SDS011;11110;52.386;16.940;2022-11-27T07:21:25;64.23;;;23.27;;
21890;SDS011;11110;52.386;16.940;2022-11-27T07:23:54;67.30;;;24.40;;
21890;SDS011;11110;52.386;16.940;2022-11-27T07:26:25;58.97;;;22.70;;
21890;SDS011;11110;52.386;16.940;2022-11-27T07:28:54;58.53;;;23.47;;
21890;SDS011;11110;52.386;16.940;2022-11-27T07:31:24;69.50;;;25.30;;
21890;SDS011;11110;52.386;16.940;2022-11-27T07:33:54;62.60;;;24.43;;
21890;SDS011;11110;52.386;16.940;2022-11-27T07:36:24;60.33;;;23.63;;
21890;SDS011;11110;52.386;16.940;2022-11-27T07:38:54;62.93;;;22.77;;
21890;SDS011;11110;52.386;16.940;2022-11-27T07:41:24;60.63;;;22.90;;
21890;SDS011;11110;52.386;16.940;2022-11-27T07:43:59;54.77;;;21.20;;
21890;SDS011;11110;52.386;16.940;2022-11-27T07:46:28;58.63;;;22.90;;
21890;SDS011;11110;52.386;16.940;2022-11-27T07:48:56;57.60;;;22.07;;
21890;SDS011;11110;52.386;16.940;2022-11-27T07:51:26;52.57;;;21.00;;
21890;SDS011;11110;52.386;16.940;2022-11-27T07:53:55;59.63;;;22.63;;
21890;SDS011;11110;52.386;16.940;2022-11-27T07:56:24;54.57;;;22.13;;
21890;SDS011;11110;52.386;16.940;2022-11-27T07:58:54;60.17;;;23.40;;
21890;SDS011;11110;52.386;16.940;2022-11-27T08:01:23;58.17;;;23.33;;
21890;SDS011;11110;52.386;16.940;2022-11-27T08:03:51;59.20;;;24.07;;
21890;SDS011;11110;52.386;16.940;2022-11-27T08:06:21;54.63;;;22.30;;
21890;SDS011;11110;52.386;16.940;2022-11-27T08:08:51;50.00;;;20.47;;
21890;SDS011;11110;52.386;16.940;2022-11-27T08:11:22;57.47;;;21.50;;
21890;SDS011;11110;52.386;16.940;2022-11-27T08:13:55;57.43;;;22.27;;
21890;SDS011;11110;52.386;16.940;2022-11-27T08:16:24;64.47;;;23.93;;
21890;SDS011;11110;52.386;16.940;2022-11-27T08:18:53;56.33;;;22.00;;
21890;SDS011;11110;52.386;16.940;2022-11-27T08:21:21;54.60;;;21.97;;
21890;SDS011;11110;52.386;16.940;2022-11-27T08:23:50;52.57;;;21.63;;
21890;SDS011;11110;52.386;16.940;2022-11-27T08:26:19;58.53;;;23.07;;
21890;SDS011;11110;52.386;16.940;2022-11-27T08:28:47;53.90;;;21.67;;
21890;SDS011;11110;52.386;16.940;2022-11-27T08:31:20;56.40;;;22.60;;
21890;SDS011;11110;52.386;16.940;2022-11-27T08:33:49;50.87;;;20.80;;
21890;SDS011;11110;52.386;16.940;2022-11-27T08:36:17;54.13;;;21.50;;
21890;SDS011;11110;52.386;16.940;2022-11-27T08:38:45;55.20;;;21.47;;
21890;SDS011;11110;52.386;16.940;2022-11-27T08:41:13;54.07;;;22.10;;
21890;SDS011;11110;52.386;16.940;2022-11-27T08:43:41;58.40;;;22.73;;
21890;SDS011;11110;52.386;16.940;2022-11-27T08:46:10;60.43;;;21.87;;
21890;SDS011;11110;52.386;16.940;2022-11-27T08:48:40;57.43;;;22.53;;
21890;SDS011;11110;52.386;16.940;2022-11-27T08:51:09;54.00;;;22.23;;
21890;SDS011;11110;52.386;16.940;2022-11-27T08:53:38;62.93;;;21.07;;
21890;SDS011;11110;52.386;16.940;2022-11-27T08:56:08;51.87;;;19.30;;
21890;SDS011;11110;52.386;16.940;2022-11-27T08:58:38;51.50;;;20.07;;
21890;SDS011;11110;52.386;16.940;2022-11-27T09:01:07;53.17;;;20.40;;
21890;SDS011;11110;52.386;16.940;2022-11-27T09:03:37;54.00;;;20.53;;
21890;SDS011;11110;52.386;16.940;2022-11-27T09:06:07;43.67;;;18.83;;
21890;SDS011;11110;52.386;16.940;2022-11-27T09:08:38;52.60;;;20.70;;
21890;SDS011;11110;52.386;16.940;2022-11-27T09:11:07;55.67;;;21.10;;
21890;SDS011;11110;52.386;16.940;2022-11-27T09:13:37;40.27;;;15.67;;
21890;SDS011;11110;52.386;16.940;2022-11-27T09:16:07;45.57;;;17.10;;
21890;SDS011;11110;52.386;16.940;2022-11-27T09:18:37;48.03;;;16.17;;
21890;SDS011;11110;52.386;16.940;2022-11-27T09:21:08;42.67;;;16.13;;
21890;SDS011;11110;52.386;16.940;2022-11-27T09:23:38;39.13;;;15.70;;
21890;SDS011;11110;52.386;16.940;2022-11-27T09:26:07;43.07;;;16.17;;
21890;SDS011;11110;52.386;16.940;2022-11-27T09:28:37;43.67;;;16.40;;
21890;SDS011;11110;52.386;16.940;2022-11-27T09:31:06;37.83;;;15.70;;
21890;SDS011;11110;52.386;16.940;2022-11-27T09:33:36;40.77;;;15.40;;
21890;SDS011;11110;52.386;16.940;2022-11-27T09:36:05;36.10;;;13.10;;
21890;SDS011;11110;52.386;16.940;2022-11-27T09:38:37;38.40;;;14.50;;
21890;SDS011;11110;52.386;16.940;2022-11-27T09:41:06;47.67;;;14.80;;
21890;SDS011;11110;52.386;16.940;2022-11-27T09:43:50;39.00;;;15.17;;
21890;SDS011;11110;52.386;16.940;2022-11-27T09:46:23;48.23;;;15.77;;
21890;SDS011;11110;52.386;16.940;2022-11-27T09:48:57;46.13;;;16.40;;
21890;SDS011;11110;52.386;16.940;2022-11-27T09:51:32;43.70;;;17.20;;
21890;SDS011;11110;52.386;16.940;2022-11-27T09:54:05;43.03;;;16.70;;
21890;SDS011;11110;52.386;16.940;2022-11-27T09:56:42;37.23;;;14.83;;
21890;SDS011;11110;52.386;16.940;2022-11-27T09:59:16;44.27;;;16.43;;
21890;SDS011;11110;52.386;16.940;2022-11-27T10:01:45;38.17;;;16.03;;
21890;SDS011;11110;52.386;16.940;2022-11-27T10:04:17;38.47;;;15.17;;
21890;SDS011;11110;52.386;16.940;2022-11-27T10:06:54;39.97;;;14.33;;
21890;SDS011;11110;52.386;16.940;2022-11-27T10:09:35;35.33;;;14.60;;
21890;SDS011;11110;52.386;16.940;2022-11-27T10:12:11;36.87;;;14.90;;
21890;SDS011;11110;52.386;16.940;2022-11-27T10:14:53;32.07;;;14.20;;
21890;SDS011;11110;52.386;16.940;2022-11-27T10:17:28;31.17;;;13.30;;
21890;SDS011;11110;52.386;16.940;2022-11-27T10:20:04;31.47;;;13.07;;
21890;SDS011;11110;52.386;16.940;2022-11-27T10:22:46;38.60;;;13.83;;
21890;SDS011;11110;52.386;16.940;2022-11-27T10:25:24;32.43;;;11.77;;
21890;SDS011;11110;52.386;16.940;2022-11-27T10:27:59;28.53;;;11.67;;
21890;SDS011;11110;52.386;16.940;2022-11-27T10:30:42;33.83;;;12.70;;
21890;SDS011;11110;52.386;16.940;2022-11-27T10:33:16;30.93;;;11.47;;
21890;SDS011;11110;52.386;16.940;2022-11-27T10:35:50;24.40;;;10.70;;
21890;SDS011;11110;52.386;16.940;2022-11-27T10:38:21;22.40;;;12.03;;
21890;SDS011;11110;52.386;16.940;2022-11-27T10:40:53;29.23;;;11.50;;
21890;SDS011;11110;52.386;16.940;2022-11-27T10:43:33;27.33;;;11.83;;
21890;SDS011;11110;52.386;16.940;2022-11-27T10:46:03;32.03;;;11.77;;
21890;SDS011;11110;52.386;16.940;2022-11-27T10:48:39;28.93;;;10.77;;
21890;SDS011;11110;52.386;16.940;2022-11-27T10:51:11;26.77;;;10.93;;
21890;SDS011;11110;52.386;16.940;2022-11-27T10:53:42;34.67;;;11.80;;
21890;SDS011;11110;52.386;16.940;2022-11-27T10:56:18;23.47;;;10.53;;
21890;SDS011;11110;52.386;16.940;2022-11-27T10:59:01;33.73;;;11.50;;
21890;SDS011;11110;52.386;16.940;2022-11-27T11:01:40;23.30;;;10.13;;
21890;SDS011;11110;52.386;16.940;2022-11-27T11:04:11;24.87;;;10.53;;
21890;SDS011;11110;52.386;16.940;2022-11-27T11:07:14;30.23;;;11.30;;
21890;SDS011;11110;52.386;16.940;2022-11-27T11:09:52;26.57;;;11.03;;
21890;SDS011;11110;52.386;16.940;2022-11-27T11:12:22;28.70;;;12.20;;
21890;SDS011;11110;52.386;16.940;2022-11-27T11:14:50;23.97;;;10.10;;
21890;SDS011;11110;52.386;16.940;2022-11-27T11:17:24;29.23;;;10.97;;
21890;SDS011;11110;52.386;16.940;2022-11-27T11:19:54;21.50;;;9.30;;
21890;SDS011;11110;52.386;16.940;2022-11-27T11:22:23;25.07;;;9.97;;
21890;SDS011;11110;52.386;16.940;2022-11-27T11:24:56;23.17;;;9.17;;
21890;SDS011;11110;52.386;16.940;2022-11-27T11:27:28;24.13;;;9.63;;
21890;SDS011;11110;52.386;16.940;2022-11-27T11:29:58;26.67;;;10.27;;
21890;SDS011;11110;52.386;16.940;2022-11-27T11:32:30;25.90;;;9.80;;
21890;SDS011;11110;52.386;16.940;2022-11-27T11:35:02;20.07;;;9.13;;
21890;SDS011;11110;52.386;16.940;2022-11-27T11:37:34;24.30;;;9.27;;
21890;SDS011;11110;52.386;16.940;2022-11-27T11:40:18;26.87;;;9.90;;
21890;SDS011;11110;52.386;16.940;2022-11-27T11:42:50;24.43;;;8.77;;
21890;SDS011;11110;52.386;16.940;2022-11-27T11:45:20;22.20;;;8.93;;
21890;SDS011;11110;52.386;16.940;2022-11-27T11:47:49;22.23;;;9.13;;
21890;SDS011;11110;52.386;16.940;2022-11-27T11:50:21;23.70;;;8.97;;
21890;SDS011;11110;52.386;16.940;2022-11-27T11:52:57;25.33;;;9.03;;
21890;SDS011;11110;52.386;16.940;2022-11-27T11:55:33;28.27;;;9.53;;
21890;SDS011;11110;52.386;16.940;2022-11-27T12:01:04;23.40;;;8.77;;
21890;SDS011;11110;52.386;16.940;2022-11-27T12:04:01;25.63;;;9.17;;
21890;SDS011;11110;52.386;16.940;2022-11-27T12:06:44;26.47;;;9.03;;
21890;SDS011;11110;52.386;16.940;2022-11-27T12:09:31;24.57;;;8.70;;
21890;SDS011;11110;52.386;16.940;2022-11-27T12:12:10;28.43;;;10.33;;
21890;SDS011;11110;52.386;16.940;2022-11-27T12:14:49;28.03;;;9.73;;
21890;SDS011;11110;52.386;16.940;2022-11-27T12:17:27;27.20;;;9.70;;
21890;SDS011;11110;52.386;16.940;2022-11-27T12:20:15;29.53;;;10.47;;
21890;SDS011;11110;52.386;16.940;2022-11-27T12:26:08;27.30;;;10.00;;
21890;SDS011;11110;52.386;16.940;2022-11-27T12:28:50;29.50;;;10.73;;
21890;SDS011;11110;52.386;16.940;2022-11-27T12:31:36;29.20;;;9.73;;
21890;SDS011;11110;52.386;16.940;2022-11-27T12:34:28;25.20;;;9.33;;
21890;SDS011;11110;52.386;16.940;2022-11-27T12:37:11;28.70;;;10.50;;
21890;SDS011;11110;52.386;16.940;2022-11-27T12:39:51;24.57;;;10.07;;
21890;SDS011;11110;52.386;16.940;2022-11-27T12:42:30;32.77;;;10.80;;
21890;SDS011;11110;52.386;16.940;2022-11-27T12:45:11;31.97;;;10.20;;
21890;SDS011;11110;52.386;16.940;2022-11-27T12:47:45;31.13;;;10.33;;
21890;SDS011;11110;52.386;16.940;2022-11-27T12:50:20;31.67;;;10.47;;
21890;SDS011;11110;52.386;16.940;2022-11-27T12:52:54;28.10;;;10.43;;
21890;SDS011;11110;52.386;16.940;2022-11-27T12:55:27;31.70;;;11.20;;
21890;SDS011;11110;52.386;16.940;2022-11-27T12:57:58;27.53;;;10.73;;
21890;SDS011;11110;52.386;16.940;2022-11-27T13:00:30;31.83;;;11.13;;
21890;SDS011;11110;52.386;16.940;2022-11-27T13:03:04;37.90;;;12.40;;
21890;SDS011;11110;52.386;16.940;2022-11-27T13:05:39;31.83;;;11.80;;
21890;SDS011;11110;52.386;16.940;2022-11-27T13:08:12;35.60;;;11.73;;
21890;SDS011;11110;52.386;16.940;2022-11-27T13:10:45;30.13;;;11.93;;
21890;SDS011;11110;52.386;16.940;2022-11-27T13:13:20;38.67;;;13.33;;
21890;SDS011;11110;52.386;16.940;2022-11-27T13:15:53;34.13;;;11.97;;
21890;SDS011;11110;52.386;16.940;2022-11-27T13:18:25;36.17;;;12.70;;
21890;SDS011;11110;52.386;16.940;2022-11-27T13:21:00;30.57;;;11.30;;
21890;SDS011;11110;52.386;16.940;2022-11-27T13:23:32;29.10;;;12.20;;
21890;SDS011;11110;52.386;16.940;2022-11-27T13:26:02;29.63;;;11.27;;
21890;SDS011;11110;52.386;16.940;2022-11-27T13:28:34;30.47;;;11.83;;
21890;SDS011;11110;52.386;16.940;2022-11-27T13:31:12;33.17;;;12.17;;
21890;SDS011;11110;52.386;16.940;2022-11-27T13:33:45;30.83;;;12.47;;
21890;SDS011;11110;52.386;16.940;2022-11-27T13:36:18;30.30;;;11.87;;
21890;SDS011;11110;52.386;16.940;2022-11-27T13:38:50;33.27;;;11.87;;
21890;SDS011;11110;52.386;16.940;2022-11-27T13:41:29;34.20;;;12.23;;
21890;SDS011;11110;52.386;16.940;2022-11-27T13:44:00;33.90;;;12.23;;
21890;SDS011;11110;52.386;16.940;2022-11-27T13:46:42;35.67;;;13.03;;
21890;SDS011;11110;52.386;16.940;2022-11-27T13:49:20;32.53;;;12.17;;
21890;SDS011;11110;52.386;16.940;2022-11-27T13:52:02;39.03;;;13.77;;
21890;SDS011;11110;52.386;16.940;2022-11-27T13:54:32;36.30;;;13.57;;
21890;SDS011;11110;52.386;16.940;2022-11-27T13:57:10;32.80;;;12.63;;
21890;SDS011;11110;52.386;16.940;2022-11-27T13:59:40;40.50;;;14.43;;
21890;SDS011;11110;52.386;16.940;2022-11-27T14:02:09;33.33;;;13.07;;
21890;SDS011;11110;52.386;16.940;2022-11-27T14:04:46;32.80;;;13.00;;
21890;SDS011;11110;52.386;16.940;2022-11-27T14:07:21;33.53;;;13.70;;
21890;SDS011;11110;52.386;16.940;2022-11-27T14:09:51;30.10;;;11.67;;
21890;SDS011;11110;52.386;16.940;2022-11-27T14:12:22;33.53;;;12.87;;
21890;SDS011;11110;52.386;16.940;2022-11-27T14:14:55;32.37;;;13.17;;
21890;SDS011;11110;52.386;16.940;2022-11-27T14:17:34;43.40;;;15.37;;
21890;SDS011;11110;52.386;16.940;2022-11-27T14:20:06;35.40;;;13.70;;
21890;SDS011;11110;52.386;16.940;2022-11-27T14:22:48;35.97;;;14.10;;
21890;SDS011;11110;52.386;16.940;2022-11-27T14:25:38;41.73;;;14.60;;
21890;SDS011;11110;52.386;16.940;2022-11-27T14:28:10;35.93;;;14.43;;
21890;SDS011;11110;52.386;16.940;2022-11-27T14:30:44;38.13;;;15.00;;
21890;SDS011;11110;52.386;16.940;2022-11-27T14:33:19;35.37;;;14.30;;
21890;SDS011;11110;52.386;16.940;2022-11-27T14:35:50;31.83;;;14.97;;
21890;SDS011;11110;52.386;16.940;2022-11-27T14:38:21;35.87;;;15.13;;
21890;SDS011;11110;52.386;16.940;2022-11-27T14:40:51;39.23;;;16.67;;
21890;SDS011;11110;52.386;16.940;2022-11-27T14:43:21;38.23;;;14.90;;